createdAt,value
2022-12-22T00:01:55.765Z,2.70
2022-12-22T00:04:42.318Z,2.70
2022-12-22T00:07:27.708Z,2.70
2022-12-22T00:10:13.354Z,2.60
2022-12-22T00:12:59.164Z,2.60
2022-12-22T00:15:46.865Z,2.60
2022-12-22T00:18:35.431Z,2.70
2022-12-22T00:21:20.928Z,2.70
2022-12-22T00:24:06.503Z,2.80
2022-12-22T00:26:54.236Z,2.80
2022-12-22T00:29:40.485Z,2.90
2022-12-22T00:32:31.817Z,2.90
2022-12-22T00:35:17.725Z,2.90
2022-12-22T00:38:03.446Z,2.90
2022-12-22T00:40:49.132Z,2.90
2022-12-22T00:43:34.885Z,2.90
2022-12-22T00:46:22.553Z,2.90
2022-12-22T00:49:09.164Z,2.90
2022-12-22T00:51:54.719Z,2.90
2022-12-22T00:54:42.050Z,3.00
2022-12-22T00:57:38.515Z,3.00
2022-12-22T01:00:25.176Z,3.00
2022-12-22T01:03:10.820Z,3.00
2022-12-22T01:05:56.811Z,3.00
2022-12-22T01:08:42.385Z,3.10
2022-12-22T01:11:27.940Z,3.00
2022-12-22T01:14:13.588Z,3.00
2022-12-22T01:16:59.102Z,2.90
2022-12-22T01:19:44.358Z,2.90
2022-12-22T01:22:31.173Z,2.90
2022-12-22T01:25:16.766Z,3.00
2022-12-22T01:28:02.371Z,3.00
2022-12-22T01:30:47.875Z,3.00
2022-12-22T01:33:33.531Z,3.00
2022-12-22T01:36:19.121Z,3.00
2022-12-22T01:39:04.587Z,3.00
2022-12-22T01:41:50.139Z,3.00
2022-12-22T01:44:37.179Z,3.00
2022-12-22T01:47:47.265Z,3.00
2022-12-22T01:50:43.773Z,3.00
2022-12-22T01:53:36.261Z,3.10
2022-12-22T01:56:22.556Z,2.90
2022-12-22T01:59:14.115Z,2.90
2022-12-22T02:02:00.832Z,2.90
2022-12-22T02:04:55.056Z,2.90
2022-12-22T02:08:08.943Z,2.80
2022-12-22T02:10:57.564Z,2.80
2022-12-22T02:14:14.097Z,2.70
2022-12-22T02:17:14.469Z,2.80
2022-12-22T02:20:15.001Z,2.90
2022-12-22T02:23:58.754Z,3.00
2022-12-22T02:26:49.195Z,3.10
2022-12-22T02:29:40.869Z,3.10
2022-12-22T02:32:26.507Z,3.00
2022-12-22T02:35:12.155Z,3.10
2022-12-22T02:38:37.057Z,3.10
2022-12-22T02:41:25.276Z,3.20
2022-12-22T02:44:37.229Z,3.10
2022-12-22T02:47:31.975Z,3.10
2022-12-22T02:50:26.604Z,3.10
2022-12-22T02:53:13.649Z,3.10
2022-12-22T02:55:59.146Z,3.00
2022-12-22T02:58:44.657Z,3.00
2022-12-22T03:01:30.309Z,3.00
2022-12-22T03:04:16.022Z,3.00
2022-12-22T03:07:01.321Z,3.10
2022-12-22T03:09:46.856Z,3.20
2022-12-22T03:12:32.486Z,3.20
2022-12-22T03:15:18.087Z,3.20
2022-12-22T03:18:03.550Z,3.20
2022-12-22T03:20:49.268Z,3.20
2022-12-22T03:23:34.903Z,3.20
2022-12-22T03:26:02.588Z,3.30
2022-12-22T03:28:29.889Z,3.30
2022-12-22T03:31:02.011Z,3.40
2022-12-22T03:33:30.165Z,3.50
2022-12-22T03:35:57.630Z,3.40
2022-12-22T03:38:24.680Z,3.40
2022-12-22T03:40:51.646Z,3.40
2022-12-22T03:43:37.657Z,3.40
2022-12-22T03:46:23.545Z,3.40
2022-12-22T03:49:09.210Z,3.40
2022-12-22T03:51:38.683Z,3.40
2022-12-22T03:54:05.681Z,3.40
2022-12-22T03:56:33.168Z,3.40
2022-12-22T03:59:00.134Z,3.40
2022-12-22T04:01:27.340Z,3.50
2022-12-22T04:03:54.362Z,3.50
2022-12-22T04:06:21.468Z,3.50
2022-12-22T04:08:48.586Z,3.50
2022-12-22T04:11:35.855Z,3.50
2022-12-22T04:14:03.378Z,3.60
2022-12-22T04:16:30.986Z,3.40
2022-12-22T04:18:57.927Z,3.40
2022-12-22T04:21:25.348Z,3.40
2022-12-22T04:23:52.406Z,3.40
2022-12-22T04:26:24.458Z,3.40
2022-12-22T04:28:53.013Z,3.40
2022-12-22T04:31:20.698Z,3.40
2022-12-22T04:33:48.068Z,3.40
2022-12-22T04:36:15.534Z,3.40
2022-12-22T04:38:42.697Z,3.40
2022-12-22T04:41:10.298Z,3.30
2022-12-22T04:43:37.316Z,3.40
2022-12-22T04:46:05.152Z,3.40
2022-12-22T04:48:32.638Z,3.40
2022-12-22T04:51:00.560Z,3.40
2022-12-22T04:53:29.469Z,3.40
2022-12-22T04:55:59.798Z,3.30
2022-12-22T04:58:27.771Z,3.30
2022-12-22T05:00:54.867Z,3.20
2022-12-22T05:03:22.460Z,3.20
2022-12-22T05:05:49.482Z,3.20
2022-12-22T05:08:16.449Z,3.20
2022-12-22T05:10:43.363Z,3.10
2022-12-22T05:13:10.304Z,3.20
2022-12-22T05:15:37.563Z,3.10
2022-12-22T05:18:05.011Z,3.10
2022-12-22T05:20:32.077Z,3.10
2022-12-22T05:22:59.112Z,3.20
2022-12-22T05:25:29.926Z,3.20
2022-12-22T05:27:59.935Z,3.20
2022-12-22T05:30:27.235Z,3.10
2022-12-22T05:32:54.238Z,3.20
2022-12-22T05:35:21.254Z,3.20
2022-12-22T05:37:48.162Z,3.20
2022-12-22T05:40:15.447Z,3.20
2022-12-22T05:42:42.320Z,3.20
2022-12-22T05:45:19.863Z,3.20
2022-12-22T05:47:51.696Z,3.20
2022-12-22T05:50:22.115Z,3.10
2022-12-22T05:52:49.273Z,3.10
2022-12-22T05:55:17.145Z,3.10
2022-12-22T05:57:44.179Z,3.20
2022-12-22T06:00:15.245Z,3.20
2022-12-22T06:02:43.731Z,3.20
2022-12-22T06:05:12.780Z,3.10
2022-12-22T06:07:40.123Z,3.10
2022-12-22T06:10:12.370Z,3.20
2022-12-22T06:12:41.018Z,3.20
2022-12-22T06:15:10.711Z,3.10
2022-12-22T06:17:44.000Z,3.10
2022-12-22T06:20:13.064Z,3.10
2022-12-22T06:22:40.044Z,3.00
2022-12-22T06:25:07.939Z,3.00
2022-12-22T06:27:36.049Z,3.00
2022-12-22T06:30:02.965Z,3.00
2022-12-22T06:32:29.873Z,3.00
2022-12-22T06:34:56.732Z,3.10
2022-12-22T06:37:23.666Z,3.10
2022-12-22T06:39:50.586Z,3.10
2022-12-22T06:42:35.937Z,3.10
2022-12-22T06:45:02.987Z,3.10
2022-12-22T06:47:29.849Z,3.10
2022-12-22T06:49:56.737Z,3.10
2022-12-22T06:52:23.626Z,3.10
2022-12-22T06:54:50.656Z,3.00
2022-12-22T06:57:17.745Z,2.90
2022-12-22T06:59:44.707Z,2.90
2022-12-22T07:02:12.242Z,2.80
2022-12-22T07:04:39.242Z,2.80
2022-12-22T07:07:06.184Z,2.80
2022-12-22T07:09:33.089Z,2.90
2022-12-22T07:12:00.098Z,2.90
2022-12-22T07:14:27.020Z,3.00
2022-12-22T07:16:53.944Z,3.10
2022-12-22T07:19:20.981Z,3.20
2022-12-22T07:21:49.060Z,3.30
2022-12-22T07:24:16.843Z,3.40
2022-12-22T07:26:43.761Z,3.40
2022-12-22T07:29:10.797Z,3.40
2022-12-22T07:31:37.762Z,3.50
2022-12-22T07:34:05.285Z,3.60
2022-12-22T07:36:32.188Z,3.70
2022-12-22T07:38:59.091Z,3.80
2022-12-22T07:41:44.450Z,3.80
2022-12-22T07:44:11.511Z,3.90
2022-12-22T07:46:39.637Z,3.80
2022-12-22T07:49:26.201Z,3.90
2022-12-22T07:51:56.123Z,3.90
2022-12-22T07:54:23.060Z,3.90
2022-12-22T07:56:50.402Z,3.90
2022-12-22T07:59:17.643Z,3.90
2022-12-22T08:01:45.776Z,3.90
2022-12-22T08:04:13.834Z,3.90
2022-12-22T08:06:40.874Z,4.00
2022-12-22T08:09:09.273Z,4.00
2022-12-22T08:11:36.307Z,3.90
2022-12-22T08:14:03.367Z,3.90
2022-12-22T08:16:30.338Z,3.90
2022-12-22T08:18:57.536Z,3.90
2022-12-22T08:21:24.660Z,3.90
2022-12-22T08:23:51.693Z,4.00
2022-12-22T08:26:39.392Z,4.00
2022-12-22T08:29:17.759Z,4.00
2022-12-22T08:31:45.096Z,3.90
2022-12-22T08:34:15.449Z,3.90
2022-12-22T08:36:50.511Z,4.00
2022-12-22T08:39:19.776Z,4.00
2022-12-22T08:41:50.008Z,4.00
2022-12-22T08:44:26.426Z,4.00
2022-12-22T08:46:55.889Z,4.00
2022-12-22T08:49:23.625Z,4.00
2022-12-22T08:51:51.215Z,4.00
2022-12-22T08:54:18.186Z,3.90
2022-12-22T08:56:46.042Z,4.00
2022-12-22T08:59:13.596Z,3.90
2022-12-22T09:01:44.485Z,4.00
2022-12-22T09:04:16.710Z,4.10
2022-12-22T09:06:43.723Z,4.10
2022-12-22T09:09:12.808Z,4.20
2022-12-22T09:11:40.474Z,4.20
2022-12-22T09:14:08.962Z,4.20
2022-12-22T09:16:36.755Z,4.20
2022-12-22T09:19:04.486Z,4.20
2022-12-22T09:21:31.415Z,4.20
2022-12-22T09:23:58.766Z,4.10
2022-12-22T09:26:28.063Z,4.20
2022-12-22T09:28:55.379Z,4.10
2022-12-22T09:31:24.024Z,4.20
2022-12-22T09:33:51.883Z,4.20
2022-12-22T09:36:21.699Z,4.20
2022-12-22T09:38:49.208Z,4.20
2022-12-22T09:41:18.209Z,4.10
2022-12-22T09:43:45.762Z,4.30
2022-12-22T09:46:25.427Z,4.40
2022-12-22T09:48:54.321Z,4.40
2022-12-22T09:51:26.769Z,4.50
2022-12-22T09:54:00.259Z,4.60
2022-12-22T09:56:29.198Z,4.60
2022-12-22T09:58:57.097Z,4.60
2022-12-22T10:01:52.075Z,4.60
2022-12-22T10:04:30.791Z,4.60
2022-12-22T10:07:09.334Z,4.60
2022-12-22T10:09:52.656Z,4.70
2022-12-22T10:12:22.741Z,4.80
2022-12-22T10:14:52.188Z,4.80
2022-12-22T10:17:28.283Z,4.90
2022-12-22T10:20:07.074Z,4.90
2022-12-22T10:22:39.671Z,4.80
2022-12-22T10:25:07.259Z,4.80
2022-12-22T10:27:41.888Z,4.80
2022-12-22T10:30:23.899Z,4.80
2022-12-22T10:33:12.273Z,4.70
2022-12-22T10:35:51.373Z,4.80
2022-12-22T10:38:21.248Z,4.80
2022-12-22T10:40:56.652Z,4.80
2022-12-22T10:43:35.200Z,4.80
2022-12-22T10:46:03.519Z,4.80
2022-12-22T10:48:34.573Z,4.70
2022-12-22T10:51:04.273Z,4.80
2022-12-22T10:53:49.179Z,4.90
2022-12-22T10:56:31.756Z,4.80
2022-12-22T10:59:01.781Z,4.60
2022-12-22T11:01:37.091Z,4.60
2022-12-22T11:04:16.195Z,4.70
2022-12-22T11:06:46.205Z,4.80
2022-12-22T11:09:32.383Z,4.90
2022-12-22T11:12:13.416Z,4.90
2022-12-22T11:15:09.110Z,4.90
2022-12-22T11:17:57.141Z,4.70
2022-12-22T11:20:51.206Z,4.80
2022-12-22T11:23:50.559Z,5.10
2022-12-22T11:26:48.011Z,5.30
2022-12-22T11:29:14.946Z,5.20
2022-12-22T11:32:06.497Z,5.40
2022-12-22T11:34:42.825Z,5.50
2022-12-22T11:37:31.194Z,5.70
2022-12-22T11:40:18.954Z,5.80
2022-12-22T11:43:20.978Z,5.80
2022-12-22T11:46:08.142Z,5.90
2022-12-22T11:48:53.566Z,5.80
2022-12-22T11:51:43.296Z,5.70
2022-12-22T11:54:19.493Z,5.60
2022-12-22T11:57:11.011Z,5.60
2022-12-22T12:00:02.811Z,5.80
2022-12-22T12:02:41.784Z,5.90
2022-12-22T12:05:36.265Z,5.90
2022-12-22T12:08:13.438Z,5.80
2022-12-22T12:10:52.757Z,5.90
2022-12-22T12:13:37.872Z,5.80
2022-12-22T12:16:19.712Z,5.80
2022-12-22T12:19:26.506Z,5.80
2022-12-22T12:22:03.899Z,5.80
2022-12-22T12:25:02.255Z,5.70
2022-12-22T12:28:24.254Z,5.70
2022-12-22T12:31:00.503Z,5.70
2022-12-22T12:33:43.970Z,5.70
2022-12-22T12:36:16.754Z,5.70
2022-12-22T12:39:13.476Z,5.60
2022-12-22T12:42:04.518Z,5.60
2022-12-22T12:44:36.673Z,5.60
2022-12-22T12:47:24.876Z,5.50
2022-12-22T12:49:53.085Z,5.60
2022-12-22T12:52:40.087Z,5.70
2022-12-22T12:55:32.497Z,5.70
2022-12-22T12:58:02.110Z,5.80
2022-12-22T13:00:34.770Z,5.80
2022-12-22T13:06:51.001Z,5.80
2022-12-22T13:09:49.327Z,5.90
2022-12-22T13:12:40.011Z,5.90
2022-12-22T13:15:28.452Z,5.80
2022-12-22T13:17:55.713Z,5.60
2022-12-22T13:20:30.530Z,5.60
2022-12-22T13:23:00.394Z,5.50
2022-12-22T13:25:56.091Z,5.40
2022-12-22T13:28:24.314Z,5.30
2022-12-22T13:30:58.123Z,5.40
2022-12-22T13:33:29.073Z,5.40
2022-12-22T13:35:59.282Z,5.40
2022-12-22T13:38:37.752Z,5.40
2022-12-22T13:41:18.948Z,5.40
2022-12-22T13:43:56.395Z,5.30
2022-12-22T13:46:23.684Z,5.40
2022-12-22T13:48:55.151Z,5.50
2022-12-22T13:51:28.684Z,5.60
2022-12-22T13:54:08.481Z,5.60
2022-12-22T13:56:41.665Z,5.50
2022-12-22T13:59:27.375Z,5.40
2022-12-22T14:02:15.648Z,5.10
2022-12-22T14:04:51.789Z,5.10
2022-12-22T14:07:20.710Z,5.10
2022-12-22T14:09:50.252Z,5.00
2022-12-22T14:12:20.878Z,4.90
2022-12-22T14:14:51.314Z,4.80
2022-12-22T14:17:26.025Z,4.80
2022-12-22T14:19:56.536Z,4.80
2022-12-22T14:22:27.860Z,4.80
2022-12-22T14:25:01.468Z,4.70
2022-12-22T14:27:32.765Z,4.70
2022-12-22T14:30:02.914Z,4.80
2022-12-22T14:32:42.416Z,4.80
2022-12-22T14:35:31.307Z,4.80
2022-12-22T14:38:07.516Z,4.90
2022-12-22T14:40:39.251Z,4.80
2022-12-22T14:43:14.869Z,4.90
2022-12-22T14:45:41.781Z,4.80
2022-12-22T14:48:10.268Z,4.80
2022-12-22T14:50:37.334Z,4.70
2022-12-22T14:53:05.722Z,4.80
2022-12-22T14:55:35.432Z,4.80
2022-12-22T14:58:42.853Z,4.90
2022-12-22T15:01:18.232Z,4.90
2022-12-22T15:03:59.065Z,4.90
2022-12-22T15:06:28.728Z,5.00
2022-12-22T15:09:47.257Z,4.90
2022-12-22T15:12:16.442Z,4.90
2022-12-22T15:14:47.731Z,4.90
2022-12-22T15:17:24.168Z,4.90
2022-12-22T15:19:52.156Z,4.90
2022-12-22T15:22:19.208Z,4.80
2022-12-22T15:24:47.188Z,4.80
2022-12-22T15:27:14.085Z,4.80
2022-12-22T15:29:41.071Z,4.80
2022-12-22T15:32:14.736Z,4.60
2022-12-22T15:34:42.513Z,4.60
2022-12-22T15:37:12.957Z,4.50
2022-12-22T15:39:40.563Z,4.40
2022-12-22T15:42:07.626Z,4.40
2022-12-22T15:44:38.740Z,4.40
2022-12-22T15:47:06.488Z,4.30
2022-12-22T15:49:33.414Z,4.30
2022-12-22T15:52:04.122Z,4.40
2022-12-22T15:54:34.993Z,4.30
2022-12-22T15:57:01.996Z,4.30
2022-12-22T15:59:29.710Z,4.30
2022-12-22T16:02:01.201Z,4.40
2022-12-22T16:04:29.190Z,4.30
2022-12-22T16:06:57.159Z,4.20
2022-12-22T16:09:27.761Z,4.20
2022-12-22T16:11:55.177Z,4.10
2022-12-22T16:14:23.334Z,4.10
2022-12-22T16:16:50.618Z,4.10
2022-12-22T16:19:19.036Z,4.10
2022-12-22T16:21:48.708Z,4.00
2022-12-22T16:24:36.313Z,4.00
2022-12-22T16:27:03.696Z,4.10
2022-12-22T16:29:31.158Z,4.10
2022-12-22T16:32:29.908Z,4.10
2022-12-22T16:35:07.100Z,4.20
2022-12-22T16:37:34.018Z,4.20
2022-12-22T16:40:01.097Z,4.20
2022-12-22T16:45:21.537Z,4.30
2022-12-22T16:47:52.260Z,4.40
2022-12-22T16:50:22.664Z,4.40
2022-12-22T16:52:50.346Z,4.40
2022-12-22T16:55:20.377Z,4.40
2022-12-22T16:57:47.763Z,4.40
2022-12-22T17:00:17.894Z,4.50
2022-12-22T17:02:51.322Z,4.50
2022-12-22T17:05:29.669Z,4.50
2022-12-22T17:07:58.349Z,4.50
2022-12-22T17:10:25.794Z,4.50
2022-12-22T17:12:55.673Z,4.50
2022-12-22T17:15:23.168Z,4.50
2022-12-22T17:17:50.758Z,4.40
2022-12-22T17:20:20.810Z,4.40
2022-12-22T17:22:55.051Z,4.40
2022-12-22T17:25:26.133Z,4.40
2022-12-22T17:27:52.999Z,4.40
2022-12-22T17:30:26.243Z,4.40
2022-12-22T17:32:53.908Z,4.50
2022-12-22T17:35:23.897Z,4.40
2022-12-22T17:37:51.393Z,4.40
2022-12-22T17:40:26.576Z,4.40
2022-12-22T17:42:54.292Z,4.30
2022-12-22T17:45:21.575Z,4.40
2022-12-22T17:47:48.492Z,4.40
2022-12-22T17:50:17.595Z,4.40
2022-12-22T17:52:45.821Z,4.40
2022-12-22T17:56:06.028Z,4.40
2022-12-22T17:58:16.976Z,4.30
2022-12-22T18:00:44.615Z,4.30
2022-12-22T18:03:15.578Z,4.40
2022-12-22T18:05:46.198Z,4.50
2022-12-22T18:08:19.946Z,4.50
2022-12-22T18:10:48.569Z,4.50
2022-12-22T18:13:25.921Z,4.60
2022-12-22T18:15:53.517Z,4.50
2022-12-22T18:18:21.046Z,4.50
2022-12-22T18:21:06.347Z,4.50
2022-12-22T18:23:37.038Z,4.50
2022-12-22T18:26:11.069Z,4.50
2022-12-22T18:28:38.051Z,4.50
2022-12-22T18:31:05.107Z,4.50
2022-12-22T18:33:32.187Z,4.50
2022-12-22T18:36:00.795Z,4.50
2022-12-22T18:38:30.821Z,4.50
2022-12-22T18:40:58.568Z,4.50
2022-12-22T18:43:26.112Z,4.50
2022-12-22T18:45:53.317Z,4.50
2022-12-22T18:48:20.401Z,4.50
2022-12-22T18:50:47.359Z,4.50
2022-12-22T18:53:27.594Z,4.50
2022-12-22T18:55:55.199Z,4.50
2022-12-22T18:58:22.619Z,4.50
2022-12-22T19:00:50.345Z,4.50
2022-12-22T19:03:21.024Z,4.50
2022-12-22T19:05:48.979Z,4.60
2022-12-22T19:08:26.566Z,4.50
2022-12-22T19:11:00.004Z,4.40
2022-12-22T19:13:39.464Z,4.40
2022-12-22T19:16:08.490Z,4.30
2022-12-22T19:18:36.337Z,4.30
2022-12-22T19:21:04.465Z,4.30
2022-12-22T19:23:32.261Z,4.30
2022-12-22T19:26:08.873Z,4.30
2022-12-22T19:28:39.262Z,4.30
2022-12-22T19:31:07.966Z,4.30
2022-12-22T19:33:42.752Z,4.40
2022-12-22T19:36:31.173Z,4.40
2022-12-22T19:39:04.693Z,4.40
2022-12-22T19:41:48.398Z,4.40
2022-12-22T19:44:18.827Z,4.30
2022-12-22T19:46:46.327Z,4.30
2022-12-22T19:49:18.703Z,4.30
2022-12-22T19:51:47.261Z,4.30
2022-12-22T19:54:15.568Z,4.30
2022-12-22T19:56:47.279Z,4.30
2022-12-22T19:59:28.080Z,4.20
2022-12-22T20:01:59.290Z,4.20
2022-12-22T20:04:27.487Z,4.20
2022-12-22T20:06:55.812Z,4.20
2022-12-22T20:09:22.949Z,4.30
2022-12-22T20:11:50.623Z,4.20
2022-12-22T20:14:19.043Z,4.30
2022-12-22T20:16:46.602Z,4.30
2022-12-22T20:19:16.014Z,4.30
2022-12-22T20:21:44.345Z,4.30
2022-12-22T20:24:21.973Z,4.30
2022-12-22T20:26:54.089Z,4.40
2022-12-22T20:29:22.845Z,4.40
2022-12-22T20:31:50.300Z,4.40
2022-12-22T20:34:17.666Z,4.40
2022-12-22T20:36:45.060Z,4.40
2022-12-22T20:39:14.519Z,4.40
2022-12-22T20:41:47.029Z,4.40
2022-12-22T20:44:18.304Z,4.40
2022-12-22T20:46:45.746Z,4.50
2022-12-22T20:49:19.005Z,4.50
2022-12-22T20:51:46.364Z,4.60
2022-12-22T20:54:18.142Z,4.50
2022-12-22T20:56:46.522Z,4.50
2022-12-22T20:59:21.940Z,4.50
2022-12-22T21:01:51.550Z,4.40
2022-12-22T21:04:19.795Z,4.50
2022-12-22T21:06:50.828Z,4.50
2022-12-22T21:09:18.706Z,4.50
2022-12-22T21:11:47.068Z,4.50
2022-12-22T21:14:14.383Z,4.60
2022-12-22T21:16:42.984Z,4.60
2022-12-22T21:19:18.517Z,4.60
2022-12-22T21:21:46.767Z,4.60
2022-12-22T21:24:14.172Z,4.60
2022-12-22T21:26:48.360Z,4.60
2022-12-22T21:29:27.021Z,4.60
2022-12-22T21:31:54.494Z,4.60
2022-12-22T21:34:22.872Z,4.70
2022-12-22T21:37:00.323Z,4.70
2022-12-22T21:39:39.782Z,4.80
2022-12-22T21:42:08.201Z,4.80
2022-12-22T21:44:36.631Z,4.80
2022-12-22T21:47:05.064Z,4.70
2022-12-22T21:49:34.561Z,4.80
2022-12-22T21:52:01.921Z,4.80
2022-12-22T21:54:29.344Z,4.90
2022-12-22T21:56:56.776Z,4.90
2022-12-22T21:59:24.182Z,4.90
2022-12-22T22:01:54.771Z,4.80
2022-12-22T22:04:23.084Z,4.80
2022-12-22T22:06:50.503Z,4.80
2022-12-22T22:09:17.919Z,4.80
2022-12-22T22:12:04.396Z,4.80
2022-12-22T22:14:31.823Z,4.90
2022-12-22T22:16:59.253Z,4.90
2022-12-22T22:19:26.687Z,4.90
2022-12-22T22:21:54.114Z,4.90
2022-12-22T22:24:21.547Z,5.00
2022-12-22T22:26:51.007Z,5.00
2022-12-22T22:29:18.414Z,5.00
2022-12-22T22:31:45.968Z,5.00
2022-12-22T22:34:13.279Z,5.00
2022-12-22T22:37:45.759Z,5.00
2022-12-22T22:40:16.500Z,5.00
2022-12-22T22:42:43.439Z,5.00
2022-12-22T22:45:13.825Z,5.10
2022-12-22T22:47:40.873Z,5.10
2022-12-22T22:50:08.976Z,5.10
2022-12-22T22:52:36.653Z,5.10
2022-12-22T22:55:03.881Z,5.10
2022-12-22T22:57:31.116Z,5.10
2022-12-22T22:59:58.150Z,5.10
2022-12-22T23:02:25.515Z,5.10
2022-12-22T23:04:52.623Z,5.10
2022-12-22T23:07:20.506Z,5.10
2022-12-22T23:09:47.546Z,5.10
2022-12-22T23:12:14.585Z,5.10
2022-12-22T23:14:41.647Z,5.10
2022-12-22T23:17:08.899Z,5.10
2022-12-22T23:19:35.800Z,5.10
2022-12-22T23:22:03.063Z,5.10
2022-12-22T23:24:31.376Z,5.10
2022-12-22T23:26:58.439Z,5.10
2022-12-22T23:29:25.539Z,5.10
2022-12-22T23:31:52.962Z,5.10
2022-12-22T23:34:19.971Z,5.10
2022-12-22T23:36:46.877Z,5.10
2022-12-22T23:39:14.272Z,5.20
2022-12-22T23:41:41.385Z,5.10
2022-12-22T23:44:08.304Z,5.10
2022-12-22T23:46:35.191Z,5.10
2022-12-22T23:49:02.160Z,5.20
2022-12-22T23:51:29.405Z,5.10
2022-12-22T23:53:58.272Z,5.20
2022-12-22T23:56:25.192Z,5.20
2022-12-22T23:58:54.921Z,5.20
